sensor_id;sensor_type;location;lat;lon;timestamp;temperature;humidity
70986;DHT22;58645;43.068;25.610;2024-03-06T00:01:05;8.20;99.90
70986;DHT22;58645;43.068;25.610;2024-03-06T00:03:32;8.20;99.90
70986;DHT22;58645;43.068;25.610;2024-03-06T00:05:58;8.20;99.90
70986;DHT22;58645;43.068;25.610;2024-03-06T00:08:24;8.20;99.90
70986;DHT22;58645;43.068;25.610;2024-03-06T00:10:49;8.20;99.90
70986;DHT22;58645;43.068;25.610;2024-03-06T00:13:15;8.20;99.90
70986;DHT22;58645;43.068;25.610;2024-03-06T00:15:41;8.30;99.90
70986;DHT22;58645;43.068;25.610;2024-03-06T00:18:06;8.30;99.90
70986;DHT22;58645;43.068;25.610;2024-03-06T00:20:32;8.30;99.90
70986;DHT22;58645;43.068;25.610;2024-03-06T00:22:58;8.30;99.90
70986;DHT22;58645;43.068;25.610;2024-03-06T00:25:25;8.20;99.90
70986;DHT22;58645;43.068;25.610;2024-03-06T00:27:50;8.20;99.90
70986;DHT22;58645;43.068;25.610;2024-03-06T00:30:16;8.10;99.90
70986;DHT22;58645;43.068;25.610;2024-03-06T00:32:42;8.10;99.90
70986;DHT22;58645;43.068;25.610;2024-03-06T00:35:08;8.10;99.90
70986;DHT22;58645;43.068;25.610;2024-03-06T00:37:34;8.20;99.90
70986;DHT22;58645;43.068;25.610;2024-03-06T00:39:59;8.10;99.90
70986;DHT22;58645;43.068;25.610;2024-03-06T00:42:25;8.10;99.90
70986;DHT22;58645;43.068;25.610;2024-03-06T00:44:51;8.10;99.90
70986;DHT22;58645;43.068;25.610;2024-03-06T00:47:17;8.10;99.90
70986;DHT22;58645;43.068;25.610;2024-03-06T00:49:43;8.00;99.90
70986;DHT22;58645;43.068;25.610;2024-03-06T00:52:08;8.10;99.90
70986;DHT22;58645;43.068;25.610;2024-03-06T00:54:35;8.10;99.90
70986;DHT22;58645;43.068;25.610;2024-03-06T00:57:01;8.10;99.90
70986;DHT22;58645;43.068;25.610;2024-03-06T00:59:27;8.10;99.90
70986;DHT22;58645;43.068;25.610;2024-03-06T01:01:53;8.10;99.90
70986;DHT22;58645;43.068;25.610;2024-03-06T01:04:22;8.10;99.90
70986;DHT22;58645;43.068;25.610;2024-03-06T01:06:48;8.10;99.90
70986;DHT22;58645;43.068;25.610;2024-03-06T01:09:13;8.10;99.90
70986;DHT22;58645;43.068;25.610;2024-03-06T01:11:39;8.10;99.90
70986;DHT22;58645;43.068;25.610;2024-03-06T01:14:05;8.10;99.90
70986;DHT22;58645;43.068;25.610;2024-03-06T01:16:31;8.10;99.90
70986;DHT22;58645;43.068;25.610;2024-03-06T01:18:56;8.10;99.90
70986;DHT22;58645;43.068;25.610;2024-03-06T01:21:22;8.10;99.90
70986;DHT22;58645;43.068;25.610;2024-03-06T01:23:48;8.10;99.90
70986;DHT22;58645;43.068;25.610;2024-03-06T01:26:14;8.00;99.90
70986;DHT22;58645;43.068;25.610;2024-03-06T01:28:39;8.10;99.90
70986;DHT22;58645;43.068;25.610;2024-03-06T01:31:05;8.10;99.90
70986;DHT22;58645;43.068;25.610;2024-03-06T01:33:32;8.10;99.90
70986;DHT22;58645;43.068;25.610;2024-03-06T01:35:57;8.10;99.90
70986;DHT22;58645;43.068;25.610;2024-03-06T01:38:23;8.10;99.90
70986;DHT22;58645;43.068;25.610;2024-03-06T01:40:49;8.20;99.90
70986;DHT22;58645;43.068;25.610;2024-03-06T01:43:24;8.30;99.90
70986;DHT22;58645;43.068;25.610;2024-03-06T01:45:51;8.30;99.90
70986;DHT22;58645;43.068;25.610;2024-03-06T01:48:21;8.30;99.90
70986;DHT22;58645;43.068;25.610;2024-03-06T01:50:47;8.30;99.90
70986;DHT22;58645;43.068;25.610;2024-03-06T01:53:14;8.20;99.90
70986;DHT22;58645;43.068;25.610;2024-03-06T01:55:41;8.10;99.90
70986;DHT22;58645;43.068;25.610;2024-03-06T01:58:07;8.00;99.90
70986;DHT22;58645;43.068;25.610;2024-03-06T02:00:33;8.00;99.90
70986;DHT22;58645;43.068;25.610;2024-03-06T02:03:00;8.00;99.90
70986;DHT22;58645;43.068;25.610;2024-03-06T02:05:28;8.00;99.90
70986;DHT22;58645;43.068;25.610;2024-03-06T02:07:55;7.90;99.90
70986;DHT22;58645;43.068;25.610;2024-03-06T02:10:22;7.90;99.90
70986;DHT22;58645;43.068;25.610;2024-03-06T02:12:48;7.90;99.90
70986;DHT22;58645;43.068;25.610;2024-03-06T02:15:14;7.80;99.90
70986;DHT22;58645;43.068;25.610;2024-03-06T02:17:41;7.80;99.90
70986;DHT22;58645;43.068;25.610;2024-03-06T02:20:08;7.70;99.90
70986;DHT22;58645;43.068;25.610;2024-03-06T02:22:40;7.60;99.90
70986;DHT22;58645;43.068;25.610;2024-03-06T02:25:06;7.60;99.90
70986;DHT22;58645;43.068;25.610;2024-03-06T02:27:32;7.60;99.90
70986;DHT22;58645;43.068;25.610;2024-03-06T02:29:58;7.60;99.90
70986;DHT22;58645;43.068;25.610;2024-03-06T02:32:24;7.50;99.90
70986;DHT22;58645;43.068;25.610;2024-03-06T02:34:51;7.50;99.90
70986;DHT22;58645;43.068;25.610;2024-03-06T02:37:16;7.50;99.90
70986;DHT22;58645;43.068;25.610;2024-03-06T02:39:43;7.30;99.90
70986;DHT22;58645;43.068;25.610;2024-03-06T02:42:09;7.30;99.90
70986;DHT22;58645;43.068;25.610;2024-03-06T02:44:35;7.30;99.90
70986;DHT22;58645;43.068;25.610;2024-03-06T02:47:00;7.30;99.90
70986;DHT22;58645;43.068;25.610;2024-03-06T02:49:26;7.20;99.90
70986;DHT22;58645;43.068;25.610;2024-03-06T02:51:52;7.20;99.90
70986;DHT22;58645;43.068;25.610;2024-03-06T02:54:18;7.20;99.90
70986;DHT22;58645;43.068;25.610;2024-03-06T02:56:43;7.10;99.90
70986;DHT22;58645;43.068;25.610;2024-03-06T02:59:09;7.10;99.90
70986;DHT22;58645;43.068;25.610;2024-03-06T03:01:35;7.00;99.90
70986;DHT22;58645;43.068;25.610;2024-03-06T03:04:01;7.00;99.90
70986;DHT22;58645;43.068;25.610;2024-03-06T03:06:27;7.00;99.90
70986;DHT22;58645;43.068;25.610;2024-03-06T03:08:54;7.00;99.90
70986;DHT22;58645;43.068;25.610;2024-03-06T03:11:21;7.00;99.90
70986;DHT22;58645;43.068;25.610;2024-03-06T03:13:47;7.00;99.90
70986;DHT22;58645;43.068;25.610;2024-03-06T03:16:19;7.00;99.90
70986;DHT22;58645;43.068;25.610;2024-03-06T03:18:46;7.00;99.90
70986;DHT22;58645;43.068;25.610;2024-03-06T03:21:12;7.00;99.90
70986;DHT22;58645;43.068;25.610;2024-03-06T03:23:39;7.00;99.90
70986;DHT22;58645;43.068;25.610;2024-03-06T03:26:05;6.90;99.90
70986;DHT22;58645;43.068;25.610;2024-03-06T03:28:31;6.90;99.90
70986;DHT22;58645;43.068;25.610;2024-03-06T03:30:58;6.80;99.90
70986;DHT22;58645;43.068;25.610;2024-03-06T03:33:24;6.80;99.90
70986;DHT22;58645;43.068;25.610;2024-03-06T03:35:49;6.80;99.90
70986;DHT22;58645;43.068;25.610;2024-03-06T03:38:15;6.80;99.90
70986;DHT22;58645;43.068;25.610;2024-03-06T03:40:42;6.80;99.90
70986;DHT22;58645;43.068;25.610;2024-03-06T03:43:08;6.80;99.90
70986;DHT22;58645;43.068;25.610;2024-03-06T03:45:34;6.80;99.90
70986;DHT22;58645;43.068;25.610;2024-03-06T03:48:05;6.80;99.90
70986;DHT22;58645;43.068;25.610;2024-03-06T03:50:31;6.90;99.90
70986;DHT22;58645;43.068;25.610;2024-03-06T03:52:58;6.90;99.90
70986;DHT22;58645;43.068;25.610;2024-03-06T03:55:26;6.90;99.90
70986;DHT22;58645;43.068;25.610;2024-03-06T03:57:52;6.90;99.90
70986;DHT22;58645;43.068;25.610;2024-03-06T04:00:19;6.90;99.90
70986;DHT22;58645;43.068;25.610;2024-03-06T04:02:45;7.00;99.90
70986;DHT22;58645;43.068;25.610;2024-03-06T04:05:10;7.00;99.90
70986;DHT22;58645;43.068;25.610;2024-03-06T04:07:36;7.00;99.90
70986;DHT22;58645;43.068;25.610;2024-03-06T04:10:03;7.00;99.90
70986;DHT22;58645;43.068;25.610;2024-03-06T04:12:29;7.10;99.90
70986;DHT22;58645;43.068;25.610;2024-03-06T04:14:56;7.00;99.90
70986;DHT22;58645;43.068;25.610;2024-03-06T04:17:22;7.00;99.90
70986;DHT22;58645;43.068;25.610;2024-03-06T04:19:47;7.10;99.90
70986;DHT22;58645;43.068;25.610;2024-03-06T04:22:14;7.10;99.90
70986;DHT22;58645;43.068;25.610;2024-03-06T04:24:43;7.20;99.90
70986;DHT22;58645;43.068;25.610;2024-03-06T04:27:10;7.20;99.90
70986;DHT22;58645;43.068;25.610;2024-03-06T04:29:36;7.20;99.90
70986;DHT22;58645;43.068;25.610;2024-03-06T04:32:01;7.20;99.90
70986;DHT22;58645;43.068;25.610;2024-03-06T04:34:27;7.20;99.90
70986;DHT22;58645;43.068;25.610;2024-03-06T04:36:53;7.20;99.90
70986;DHT22;58645;43.068;25.610;2024-03-06T04:39:19;7.20;99.90
70986;DHT22;58645;43.068;25.610;2024-03-06T04:41:45;7.30;99.90
70986;DHT22;58645;43.068;25.610;2024-03-06T04:44:10;7.30;99.90
70986;DHT22;58645;43.068;25.610;2024-03-06T04:46:36;7.30;99.90
70986;DHT22;58645;43.068;25.610;2024-03-06T04:49:03;7.30;99.90
70986;DHT22;58645;43.068;25.610;2024-03-06T04:51:28;7.30;99.90
70986;DHT22;58645;43.068;25.610;2024-03-06T04:53:54;7.30;99.90
70986;DHT22;58645;43.068;25.610;2024-03-06T04:56:20;7.30;99.90
70986;DHT22;58645;43.068;25.610;2024-03-06T04:58:47;7.30;99.90
70986;DHT22;58645;43.068;25.610;2024-03-06T05:01:13;7.40;99.90
70986;DHT22;58645;43.068;25.610;2024-03-06T05:03:39;7.40;99.90
70986;DHT22;58645;43.068;25.610;2024-03-06T05:06:05;7.30;99.90
70986;DHT22;58645;43.068;25.610;2024-03-06T05:08:31;7.30;99.90
70986;DHT22;58645;43.068;25.610;2024-03-06T05:11:00;7.30;99.90
70986;DHT22;58645;43.068;25.610;2024-03-06T05:13:26;7.30;99.90
70986;DHT22;58645;43.068;25.610;2024-03-06T05:15:52;7.30;99.90
70986;DHT22;58645;43.068;25.610;2024-03-06T05:18:20;7.30;99.90
70986;DHT22;58645;43.068;25.610;2024-03-06T05:20:46;7.30;99.90
70986;DHT22;58645;43.068;25.610;2024-03-06T05:23:12;7.20;99.90
70986;DHT22;58645;43.068;25.610;2024-03-06T05:25:39;7.20;99.90
70986;DHT22;58645;43.068;25.610;2024-03-06T05:28:06;7.20;99.90
70986;DHT22;58645;43.068;25.610;2024-03-06T05:30:32;7.20;99.90
70986;DHT22;58645;43.068;25.610;2024-03-06T05:32:58;7.20;99.90
70986;DHT22;58645;43.068;25.610;2024-03-06T05:35:24;7.20;99.90
70986;DHT22;58645;43.068;25.610;2024-03-06T05:37:50;7.20;99.90
70986;DHT22;58645;43.068;25.610;2024-03-06T05:40:19;7.20;99.90
70986;DHT22;58645;43.068;25.610;2024-03-06T05:42:45;7.20;99.90
70986;DHT22;58645;43.068;25.610;2024-03-06T05:45:10;7.20;99.90
70986;DHT22;58645;43.068;25.610;2024-03-06T05:47:37;7.20;99.90
70986;DHT22;58645;43.068;25.610;2024-03-06T05:50:07;7.20;99.90
70986;DHT22;58645;43.068;25.610;2024-03-06T05:52:35;7.20;99.90
70986;DHT22;58645;43.068;25.610;2024-03-06T05:55:05;7.30;99.90
70986;DHT22;58645;43.068;25.610;2024-03-06T05:57:32;7.30;99.90
70986;DHT22;58645;43.068;25.610;2024-03-06T06:00:01;7.30;99.90
70986;DHT22;58645;43.068;25.610;2024-03-06T06:02:28;7.30;99.90
70986;DHT22;58645;43.068;25.610;2024-03-06T06:04:54;7.30;99.90
70986;DHT22;58645;43.068;25.610;2024-03-06T06:07:50;7.30;99.90
70986;DHT22;58645;43.068;25.610;2024-03-06T06:10:16;7.40;99.90
70986;DHT22;58645;43.068;25.610;2024-03-06T06:12:42;7.30;99.90
70986;DHT22;58645;43.068;25.610;2024-03-06T06:15:08;7.30;99.90
70986;DHT22;58645;43.068;25.610;2024-03-06T06:17:34;7.30;99.90
70986;DHT22;58645;43.068;25.610;2024-03-06T06:20:00;7.30;99.90
70986;DHT22;58645;43.068;25.610;2024-03-06T06:22:29;7.30;99.90
70986;DHT22;58645;43.068;25.610;2024-03-06T06:24:55;7.30;99.90
70986;DHT22;58645;43.068;25.610;2024-03-06T06:27:21;7.30;99.90
70986;DHT22;58645;43.068;25.610;2024-03-06T06:29:47;7.20;99.90
70986;DHT22;58645;43.068;25.610;2024-03-06T06:32:12;7.20;99.90
70986;DHT22;58645;43.068;25.610;2024-03-06T06:34:38;7.20;99.90
70986;DHT22;58645;43.068;25.610;2024-03-06T06:37:04;7.20;99.90
70986;DHT22;58645;43.068;25.610;2024-03-06T06:39:30;7.30;99.90
70986;DHT22;58645;43.068;25.610;2024-03-06T06:41:56;7.30;99.90
70986;DHT22;58645;43.068;25.610;2024-03-06T06:44:22;7.30;99.90
70986;DHT22;58645;43.068;25.610;2024-03-06T06:46:48;7.40;99.90
70986;DHT22;58645;43.068;25.610;2024-03-06T06:49:13;7.40;99.90
70986;DHT22;58645;43.068;25.610;2024-03-06T06:51:39;7.40;99.90
70986;DHT22;58645;43.068;25.610;2024-03-06T06:54:05;7.50;99.90
70986;DHT22;58645;43.068;25.610;2024-03-06T06:56:54;7.50;99.90
70986;DHT22;58645;43.068;25.610;2024-03-06T06:59:44;7.30;99.90
70986;DHT22;58645;43.068;25.610;2024-03-06T07:02:10;7.50;99.90
70986;DHT22;58645;43.068;25.610;2024-03-06T07:04:38;7.50;99.90
70986;DHT22;58645;43.068;25.610;2024-03-06T07:07:04;7.50;99.90
70986;DHT22;58645;43.068;25.610;2024-03-06T07:09:33;7.50;99.90
70986;DHT22;58645;43.068;25.610;2024-03-06T07:11:59;7.50;99.90
70986;DHT22;58645;43.068;25.610;2024-03-06T07:14:25;7.60;99.90
70986;DHT22;58645;43.068;25.610;2024-03-06T07:16:51;7.60;99.90
70986;DHT22;58645;43.068;25.610;2024-03-06T07:19:16;7.70;99.90
70986;DHT22;58645;43.068;25.610;2024-03-06T07:21:45;7.80;99.90
70986;DHT22;58645;43.068;25.610;2024-03-06T07:24:11;7.80;99.90
70986;DHT22;58645;43.068;25.610;2024-03-06T07:26:37;7.80;99.90
70986;DHT22;58645;43.068;25.610;2024-03-06T07:29:03;8.10;99.90
70986;DHT22;58645;43.068;25.610;2024-03-06T07:31:29;8.20;99.90
70986;DHT22;58645;43.068;25.610;2024-03-06T07:33:55;8.20;99.90
70986;DHT22;58645;43.068;25.610;2024-03-06T07:36:21;8.20;99.90
70986;DHT22;58645;43.068;25.610;2024-03-06T07:38:47;8.10;99.90
70986;DHT22;58645;43.068;25.610;2024-03-06T07:41:13;8.10;99.90
70986;DHT22;58645;43.068;25.610;2024-03-06T07:43:39;8.00;99.90
70986;DHT22;58645;43.068;25.610;2024-03-06T07:46:07;8.00;99.90
70986;DHT22;58645;43.068;25.610;2024-03-06T07:48:37;8.10;99.90
70986;DHT22;58645;43.068;25.610;2024-03-06T07:51:03;8.10;99.90
70986;DHT22;58645;43.068;25.610;2024-03-06T07:53:30;8.20;99.90
70986;DHT22;58645;43.068;25.610;2024-03-06T07:55:55;8.20;99.90
70986;DHT22;58645;43.068;25.610;2024-03-06T07:58:21;8.20;99.90
70986;DHT22;58645;43.068;25.610;2024-03-06T08:00:47;8.40;99.90
70986;DHT22;58645;43.068;25.610;2024-03-06T08:03:13;8.50;99.90
70986;DHT22;58645;43.068;25.610;2024-03-06T08:05:39;8.60;99.90
70986;DHT22;58645;43.068;25.610;2024-03-06T08:08:05;8.70;99.90
70986;DHT22;58645;43.068;25.610;2024-03-06T08:10:34;8.80;99.90
70986;DHT22;58645;43.068;25.610;2024-03-06T08:13:00;8.90;99.90
70986;DHT22;58645;43.068;25.610;2024-03-06T08:15:26;9.00;99.90
70986;DHT22;58645;43.068;25.610;2024-03-06T08:17:52;9.10;99.90
70986;DHT22;58645;43.068;25.610;2024-03-06T08:20:18;9.20;99.90
70986;DHT22;58645;43.068;25.610;2024-03-06T08:22:44;9.40;99.90
70986;DHT22;58645;43.068;25.610;2024-03-06T08:25:11;9.50;99.90
70986;DHT22;58645;43.068;25.610;2024-03-06T08:27:41;9.70;99.90
70986;DHT22;58645;43.068;25.610;2024-03-06T08:30:08;9.90;99.90
70986;DHT22;58645;43.068;25.610;2024-03-06T08:32:35;10.00;99.90
70986;DHT22;58645;43.068;25.610;2024-03-06T08:35:03;10.10;99.90
70986;DHT22;58645;43.068;25.610;2024-03-06T08:37:32;10.20;99.90
70986;DHT22;58645;43.068;25.610;2024-03-06T08:40:10;10.20;99.90
70986;DHT22;58645;43.068;25.610;2024-03-06T08:42:40;10.10;99.90
70986;DHT22;58645;43.068;25.610;2024-03-06T08:45:07;10.00;99.90
70986;DHT22;58645;43.068;25.610;2024-03-06T08:47:34;10.00;99.90
70986;DHT22;58645;43.068;25.610;2024-03-06T08:50:00;9.90;99.90
70986;DHT22;58645;43.068;25.610;2024-03-06T08:52:25;9.80;99.90
70986;DHT22;58645;43.068;25.610;2024-03-06T08:54:51;9.80;99.90
70986;DHT22;58645;43.068;25.610;2024-03-06T08:57:17;9.70;99.90
70986;DHT22;58645;43.068;25.610;2024-03-06T08:59:43;9.80;99.90
70986;DHT22;58645;43.068;25.610;2024-03-06T09:02:17;9.80;99.90
70986;DHT22;58645;43.068;25.610;2024-03-06T09:04:44;9.70;99.90
70986;DHT22;58645;43.068;25.610;2024-03-06T09:07:10;9.70;99.90
70986;DHT22;58645;43.068;25.610;2024-03-06T09:09:37;9.70;99.90
70986;DHT22;58645;43.068;25.610;2024-03-06T09:12:07;9.70;99.90
70986;DHT22;58645;43.068;25.610;2024-03-06T09:14:39;9.70;99.90
70986;DHT22;58645;43.068;25.610;2024-03-06T09:17:05;9.70;99.90
70986;DHT22;58645;43.068;25.610;2024-03-06T09:19:32;9.80;99.90
70986;DHT22;58645;43.068;25.610;2024-03-06T09:21:58;9.90;99.90
70986;DHT22;58645;43.068;25.610;2024-03-06T09:24:25;10.00;99.90
70986;DHT22;58645;43.068;25.610;2024-03-06T09:26:53;10.10;99.90
70986;DHT22;58645;43.068;25.610;2024-03-06T09:29:19;10.10;99.90
70986;DHT22;58645;43.068;25.610;2024-03-06T09:31:46;10.20;99.90
70986;DHT22;58645;43.068;25.610;2024-03-06T09:34:13;10.20;99.90
70986;DHT22;58645;43.068;25.610;2024-03-06T09:36:41;10.30;99.90
70986;DHT22;58645;43.068;25.610;2024-03-06T09:39:14;10.20;99.90
70986;DHT22;58645;43.068;25.610;2024-03-06T09:41:46;10.20;99.90
70986;DHT22;58645;43.068;25.610;2024-03-06T09:44:13;10.30;99.90
70986;DHT22;58645;43.068;25.610;2024-03-06T09:46:47;10.30;99.90
70986;DHT22;58645;43.068;25.610;2024-03-06T09:49:14;10.50;99.90
70986;DHT22;58645;43.068;25.610;2024-03-06T09:51:48;10.40;99.90
70986;DHT22;58645;43.068;25.610;2024-03-06T09:54:19;10.50;99.90
70986;DHT22;58645;43.068;25.610;2024-03-06T09:56:46;10.50;99.90
70986;DHT22;58645;43.068;25.610;2024-03-06T09:59:14;10.60;99.90
70986;DHT22;58645;43.068;25.610;2024-03-06T10:01:55;10.60;99.90
70986;DHT22;58645;43.068;25.610;2024-03-06T10:04:28;10.70;99.90
70986;DHT22;58645;43.068;25.610;2024-03-06T10:06:59;10.70;99.90
70986;DHT22;58645;43.068;25.610;2024-03-06T10:09:26;10.80;99.90
70986;DHT22;58645;43.068;25.610;2024-03-06T10:11:53;10.80;99.90
70986;DHT22;58645;43.068;25.610;2024-03-06T10:14:19;10.70;99.90
70986;DHT22;58645;43.068;25.610;2024-03-06T10:16:59;10.90;99.90
70986;DHT22;58645;43.068;25.610;2024-03-06T10:19:30;11.10;99.90
70986;DHT22;58645;43.068;25.610;2024-03-06T10:21:58;11.40;99.90
70986;DHT22;58645;43.068;25.610;2024-03-06T10:24:27;11.70;99.90
70986;DHT22;58645;43.068;25.610;2024-03-06T10:26:58;11.90;99.90
70986;DHT22;58645;43.068;25.610;2024-03-06T10:29:30;12.20;99.90
70986;DHT22;58645;43.068;25.610;2024-03-06T10:31:58;12.30;99.90
70986;DHT22;58645;43.068;25.610;2024-03-06T10:34:28;12.30;99.90
70986;DHT22;58645;43.068;25.610;2024-03-06T10:37:01;12.30;99.90
70986;DHT22;58645;43.068;25.610;2024-03-06T10:39:27;12.20;99.90
70986;DHT22;58645;43.068;25.610;2024-03-06T10:41:56;12.20;99.90
70986;DHT22;58645;43.068;25.610;2024-03-06T10:44:26;12.30;99.90
70986;DHT22;58645;43.068;25.610;2024-03-06T10:46:57;12.30;99.90
70986;DHT22;58645;43.068;25.610;2024-03-06T10:49:28;12.10;99.90
70986;DHT22;58645;43.068;25.610;2024-03-06T10:52:02;12.00;99.90
70986;DHT22;58645;43.068;25.610;2024-03-06T10:54:33;11.70;99.90
70986;DHT22;58645;43.068;25.610;2024-03-06T10:57:08;11.60;99.90
70986;DHT22;58645;43.068;25.610;2024-03-06T10:59:36;11.50;99.90
70986;DHT22;58645;43.068;25.610;2024-03-06T11:02:02;11.50;99.90
70986;DHT22;58645;43.068;25.610;2024-03-06T11:04:30;11.50;99.90
70986;DHT22;58645;43.068;25.610;2024-03-06T11:07:04;11.50;99.90
70986;DHT22;58645;43.068;25.610;2024-03-06T11:09:37;11.40;99.90
70986;DHT22;58645;43.068;25.610;2024-03-06T11:12:06;11.50;99.90
70986;DHT22;58645;43.068;25.610;2024-03-06T11:14:33;11.20;99.90
70986;DHT22;58645;43.068;25.610;2024-03-06T11:17:06;11.10;99.90
70986;DHT22;58645;43.068;25.610;2024-03-06T11:28:17;10.80;99.90
70986;DHT22;58645;43.068;25.610;2024-03-06T11:30:47;10.80;99.90
70986;DHT22;58645;43.068;25.610;2024-03-06T11:33:17;10.80;99.90
70986;DHT22;58645;43.068;25.610;2024-03-06T11:36:11;10.90;99.90
70986;DHT22;58645;43.068;25.610;2024-03-06T11:38:32;10.90;99.90
70986;DHT22;58645;43.068;25.610;2024-03-06T11:40:58;11.00;99.90
70986;DHT22;58645;43.068;25.610;2024-03-06T11:43:25;11.10;99.90
70986;DHT22;58645;43.068;25.610;2024-03-06T11:45:52;11.30;99.90
70986;DHT22;58645;43.068;25.610;2024-03-06T11:48:18;11.40;99.90
70986;DHT22;58645;43.068;25.610;2024-03-06T11:50:51;11.80;99.90
70986;DHT22;58645;43.068;25.610;2024-03-06T11:53:19;12.10;99.90
70986;DHT22;58645;43.068;25.610;2024-03-06T11:55:46;12.40;99.90
70986;DHT22;58645;43.068;25.610;2024-03-06T11:58:11;12.70;99.90
70986;DHT22;58645;43.068;25.610;2024-03-06T12:00:37;12.80;99.90
70986;DHT22;58645;43.068;25.610;2024-03-06T12:03:03;12.90;99.90
70986;DHT22;58645;43.068;25.610;2024-03-06T12:05:31;12.90;99.90
70986;DHT22;58645;43.068;25.610;2024-03-06T12:07:57;12.90;99.90
70986;DHT22;58645;43.068;25.610;2024-03-06T12:10:22;12.80;99.90
70986;DHT22;58645;43.068;25.610;2024-03-06T12:12:48;12.70;99.90
70986;DHT22;58645;43.068;25.610;2024-03-06T12:15:14;12.70;99.90
70986;DHT22;58645;43.068;25.610;2024-03-06T12:17:50;12.40;99.90
70986;DHT22;58645;43.068;25.610;2024-03-06T12:20:17;12.30;99.90
70986;DHT22;58645;43.068;25.610;2024-03-06T12:22:50;12.30;99.90
70986;DHT22;58645;43.068;25.610;2024-03-06T12:25:26;12.20;99.90
70986;DHT22;58645;43.068;25.610;2024-03-06T12:27:54;11.90;99.90
70986;DHT22;58645;43.068;25.610;2024-03-06T12:30:21;11.80;99.90
70986;DHT22;58645;43.068;25.610;2024-03-06T12:35:27;11.60;99.90
70986;DHT22;58645;43.068;25.610;2024-03-06T12:37:53;11.50;99.90
70986;DHT22;58645;43.068;25.610;2024-03-06T12:40:22;11.60;99.90
70986;DHT22;58645;43.068;25.610;2024-03-06T12:42:48;11.60;99.90
70986;DHT22;58645;43.068;25.610;2024-03-06T12:45:15;11.60;99.90
70986;DHT22;58645;43.068;25.610;2024-03-06T12:47:42;11.60;99.90
70986;DHT22;58645;43.068;25.610;2024-03-06T12:50:09;11.60;99.90
70986;DHT22;58645;43.068;25.610;2024-03-06T12:52:36;11.50;99.90
70986;DHT22;58645;43.068;25.610;2024-03-06T12:55:02;11.50;99.90
70986;DHT22;58645;43.068;25.610;2024-03-06T12:57:31;11.50;99.90
70986;DHT22;58645;43.068;25.610;2024-03-06T12:59:57;11.40;99.90
70986;DHT22;58645;43.068;25.610;2024-03-06T13:02:22;11.40;99.90
70986;DHT22;58645;43.068;25.610;2024-03-06T13:04:48;11.40;99.90
70986;DHT22;58645;43.068;25.610;2024-03-06T13:07:14;11.30;99.90
70986;DHT22;58645;43.068;25.610;2024-03-06T13:09:40;11.20;99.90
70986;DHT22;58645;43.068;25.610;2024-03-06T13:12:06;11.20;99.90
70986;DHT22;58645;43.068;25.610;2024-03-06T13:14:32;11.20;99.90
70986;DHT22;58645;43.068;25.610;2024-03-06T13:16:59;11.20;99.90
70986;DHT22;58645;43.068;25.610;2024-03-06T13:19:25;11.30;99.90
70986;DHT22;58645;43.068;25.610;2024-03-06T13:21:50;11.30;99.90
70986;DHT22;58645;43.068;25.610;2024-03-06T13:24:18;11.50;99.90
70986;DHT22;58645;43.068;25.610;2024-03-06T13:26:45;11.40;99.90
70986;DHT22;58645;43.068;25.610;2024-03-06T13:29:11;11.40;99.90
70986;DHT22;58645;43.068;25.610;2024-03-06T13:31:37;11.40;99.90
70986;DHT22;58645;43.068;25.610;2024-03-06T13:34:03;11.50;99.90
70986;DHT22;58645;43.068;25.610;2024-03-06T13:36:30;11.50;99.90
70986;DHT22;58645;43.068;25.610;2024-03-06T13:38:56;11.50;99.90
70986;DHT22;58645;43.068;25.610;2024-03-06T13:41:22;11.60;99.90
70986;DHT22;58645;43.068;25.610;2024-03-06T13:43:48;11.70;99.90
70986;DHT22;58645;43.068;25.610;2024-03-06T13:46:14;11.80;99.90
70986;DHT22;58645;43.068;25.610;2024-03-06T13:48:40;12.00;99.90
70986;DHT22;58645;43.068;25.610;2024-03-06T13:51:05;12.00;99.90
70986;DHT22;58645;43.068;25.610;2024-03-06T13:53:31;12.00;99.90
70986;DHT22;58645;43.068;25.610;2024-03-06T13:55:57;12.00;99.90
70986;DHT22;58645;43.068;25.610;2024-03-06T13:58:23;12.10;99.90
70986;DHT22;58645;43.068;25.610;2024-03-06T14:00:49;12.10;99.90
70986;DHT22;58645;43.068;25.610;2024-03-06T14:03:15;12.00;99.90
70986;DHT22;58645;43.068;25.610;2024-03-06T14:05:40;12.10;99.90
70986;DHT22;58645;43.068;25.610;2024-03-06T14:08:06;12.10;99.90
70986;DHT22;58645;43.068;25.610;2024-03-06T14:10:33;12.00;99.90
70986;DHT22;58645;43.068;25.610;2024-03-06T14:12:59;12.10;99.90
70986;DHT22;58645;43.068;25.610;2024-03-06T14:15:25;12.10;99.90
70986;DHT22;58645;43.068;25.610;2024-03-06T14:17:52;12.00;99.90
70986;DHT22;58645;43.068;25.610;2024-03-06T14:20:20;11.80;99.90
70986;DHT22;58645;43.068;25.610;2024-03-06T14:22:46;11.90;99.90
70986;DHT22;58645;43.068;25.610;2024-03-06T14:25:12;11.80;99.90
70986;DHT22;58645;43.068;25.610;2024-03-06T14:27:38;11.80;99.90
70986;DHT22;58645;43.068;25.610;2024-03-06T14:30:05;11.70;99.90
70986;DHT22;58645;43.068;25.610;2024-03-06T14:32:33;11.80;99.90
70986;DHT22;58645;43.068;25.610;2024-03-06T14:34:59;11.80;99.90
70986;DHT22;58645;43.068;25.610;2024-03-06T14:37:24;11.70;99.90
70986;DHT22;58645;43.068;25.610;2024-03-06T14:39:50;11.80;99.90
70986;DHT22;58645;43.068;25.610;2024-03-06T14:42:19;11.70;99.90
70986;DHT22;58645;43.068;25.610;2024-03-06T14:44:45;11.70;99.90
70986;DHT22;58645;43.068;25.610;2024-03-06T14:47:12;11.70;99.90
70986;DHT22;58645;43.068;25.610;2024-03-06T14:49:41;11.70;99.90
70986;DHT22;58645;43.068;25.610;2024-03-06T14:52:07;11.60;99.90
70986;DHT22;58645;43.068;25.610;2024-03-06T14:54:34;11.60;99.90
70986;DHT22;58645;43.068;25.610;2024-03-06T14:57:00;11.60;99.90
70986;DHT22;58645;43.068;25.610;2024-03-06T14:59:27;11.50;99.90
70986;DHT22;58645;43.068;25.610;2024-03-06T15:01:52;11.50;99.90
70986;DHT22;58645;43.068;25.610;2024-03-06T15:04:18;11.40;99.90
70986;DHT22;58645;43.068;25.610;2024-03-06T15:06:45;11.40;99.90
70986;DHT22;58645;43.068;25.610;2024-03-06T15:09:11;11.40;99.90
70986;DHT22;58645;43.068;25.610;2024-03-06T15:11:39;11.30;99.90
70986;DHT22;58645;43.068;25.610;2024-03-06T15:14:05;11.30;99.90
70986;DHT22;58645;43.068;25.610;2024-03-06T15:16:33;11.30;99.90
70986;DHT22;58645;43.068;25.610;2024-03-06T15:18:59;11.20;99.90
70986;DHT22;58645;43.068;25.610;2024-03-06T15:21:29;11.30;99.90
70986;DHT22;58645;43.068;25.610;2024-03-06T15:23:56;11.30;99.90
70986;DHT22;58645;43.068;25.610;2024-03-06T15:26:21;11.30;99.90
70986;DHT22;58645;43.068;25.610;2024-03-06T15:28:47;11.40;99.90
70986;DHT22;58645;43.068;25.610;2024-03-06T15:31:13;11.30;99.90
70986;DHT22;58645;43.068;25.610;2024-03-06T15:33:39;11.30;99.90
70986;DHT22;58645;43.068;25.610;2024-03-06T15:36:04;11.20;99.90